createdAt,value
2023-03-07T00:00:43.814Z,614
2023-03-07T00:01:43.831Z,618
2023-03-07T00:03:44.195Z,600
2023-03-07T00:04:43.839Z,569
2023-03-07T00:05:43.936Z,569
2023-03-07T00:06:43.800Z,581
2023-03-07T00:08:44.105Z,569
2023-03-07T00:09:43.825Z,578
2023-03-07T00:10:43.842Z,586
2023-03-07T00:11:43.835Z,578
2023-03-07T00:13:44.130Z,578
2023-03-07T00:14:43.919Z,629
2023-03-07T00:15:43.919Z,629
2023-03-07T00:16:43.803Z,629
2023-03-07T00:18:44.097Z,629
2023-03-07T00:19:43.834Z,640
2023-03-07T00:20:43.939Z,640
2023-03-07T00:21:43.941Z,653
2023-03-07T00:23:44.100Z,653
2023-03-07T00:24:43.804Z,704
2023-03-07T00:25:43.826Z,704
2023-03-07T00:26:43.924Z,704
2023-03-07T00:28:44.099Z,704
2023-03-07T00:29:43.958Z,691
2023-03-07T00:30:43.929Z,691
2023-03-07T00:31:43.846Z,691
2023-03-07T00:33:44.097Z,691
2023-03-07T00:34:43.944Z,653
2023-03-07T00:35:43.934Z,653
2023-03-07T00:36:43.925Z,653
2023-03-07T00:38:44.061Z,653
2023-03-07T00:39:44.000Z,704
2023-03-07T00:40:43.803Z,704
2023-03-07T00:41:43.975Z,704
2023-03-07T00:43:44.152Z,704
2023-03-07T00:44:43.918Z,691
2023-03-07T00:45:43.839Z,691
2023-03-07T00:46:43.932Z,691
2023-03-07T00:48:44.072Z,691
2023-03-07T00:49:43.938Z,751
2023-03-07T00:50:43.932Z,751
2023-03-07T00:51:43.845Z,751
2023-03-07T00:53:44.109Z,751
2023-03-07T00:54:43.807Z,642
2023-03-07T00:55:43.838Z,642
2023-03-07T00:56:43.945Z,642
2023-03-07T00:58:44.111Z,642
2023-03-07T00:59:43.836Z,751
2023-03-07T01:00:43.856Z,751
2023-03-07T01:01:43.946Z,751
2023-03-07T01:03:44.153Z,751
2023-03-07T01:04:43.944Z,715
2023-03-07T01:05:43.818Z,715
2023-03-07T01:06:43.964Z,715
2023-03-07T01:08:44.205Z,715
2023-03-07T01:09:43.832Z,862
2023-03-07T01:10:43.852Z,765
2023-03-07T01:11:43.867Z,765
2023-03-07T01:13:44.126Z,786
2023-03-07T01:14:43.815Z,691
2023-03-07T01:15:43.825Z,691
2023-03-07T01:16:43.889Z,691
2023-03-07T01:18:44.125Z,691
2023-03-07T01:19:43.851Z,704
2023-03-07T01:20:43.854Z,704
2023-03-07T01:21:43.857Z,704
2023-03-07T01:23:44.121Z,704
2023-03-07T01:24:43.831Z,779
2023-03-07T01:25:43.856Z,779
2023-03-07T01:26:43.874Z,779
2023-03-07T01:28:44.149Z,779
2023-03-07T01:29:43.834Z,794
2023-03-07T01:30:43.958Z,794
2023-03-07T01:31:43.868Z,794
2023-03-07T01:33:44.142Z,794
2023-03-07T01:34:43.865Z,794
2023-03-07T01:35:43.832Z,794
2023-03-07T01:36:44.055Z,794
2023-03-07T01:38:44.131Z,794
2023-03-07T01:39:43.834Z,733
2023-03-07T01:40:43.965Z,733
2023-03-07T01:41:43.820Z,733
2023-03-07T01:43:44.149Z,733
2023-03-07T01:44:43.838Z,808
2023-03-07T01:45:43.878Z,808
2023-03-07T01:46:43.950Z,808
2023-03-07T01:48:44.136Z,808
2023-03-07T01:49:43.925Z,794
2023-03-07T01:50:43.851Z,794
2023-03-07T01:51:43.865Z,794
2023-03-07T01:53:44.160Z,794
2023-03-07T01:54:43.844Z,794
2023-03-07T01:55:43.944Z,794
2023-03-07T01:56:43.865Z,794
2023-03-07T01:58:44.139Z,794
2023-03-07T01:59:43.833Z,794
2023-03-07T02:00:43.873Z,794
2023-03-07T02:01:43.858Z,794
2023-03-07T02:03:44.157Z,794
2023-03-07T02:04:43.875Z,855
2023-03-07T02:05:43.836Z,855
2023-03-07T02:06:43.839Z,855
2023-03-07T02:08:44.145Z,855
2023-03-07T02:09:43.839Z,779
2023-03-07T02:10:43.864Z,779
2023-03-07T02:11:43.872Z,779
2023-03-07T02:13:44.128Z,779
2023-03-07T02:14:43.838Z,779
2023-03-07T02:15:43.893Z,779
2023-03-07T02:16:43.877Z,779
2023-03-07T02:18:44.165Z,779
2023-03-07T02:19:43.859Z,715
2023-03-07T02:20:43.841Z,715
2023-03-07T02:21:43.864Z,715
2023-03-07T02:23:44.155Z,715
2023-03-07T02:24:43.859Z,653
2023-03-07T02:25:43.866Z,653
2023-03-07T02:26:43.973Z,653
2023-03-07T02:28:44.166Z,653
2023-03-07T02:29:43.975Z,666
2023-03-07T02:30:44.070Z,666
2023-03-07T02:31:43.989Z,666
2023-03-07T02:33:44.157Z,666
2023-03-07T02:34:43.851Z,693
2023-03-07T02:35:43.940Z,693
2023-03-07T02:36:43.976Z,693
2023-03-07T02:38:44.140Z,693
2023-03-07T02:39:43.881Z,666
2023-03-07T02:40:43.872Z,666
2023-03-07T02:41:43.879Z,666
2023-03-07T02:43:44.140Z,666
2023-03-07T02:44:43.977Z,653
2023-03-07T02:45:43.859Z,653
2023-03-07T02:46:43.870Z,653
2023-03-07T02:48:44.145Z,653
2023-03-07T02:49:43.883Z,653
2023-03-07T02:50:43.962Z,653
2023-03-07T02:51:43.975Z,653
2023-03-07T02:53:44.183Z,653
2023-03-07T02:54:44.004Z,679
2023-03-07T02:55:43.852Z,679
2023-03-07T02:56:43.865Z,679
2023-03-07T02:58:44.148Z,679
2023-03-07T02:59:43.878Z,693
2023-03-07T03:00:43.852Z,693
2023-03-07T03:01:43.916Z,693
2023-03-07T03:03:44.161Z,693
2023-03-07T03:04:43.947Z,679
2023-03-07T03:05:43.861Z,679
2023-03-07T03:06:43.879Z,679
2023-03-07T03:08:44.172Z,679
2023-03-07T03:09:43.984Z,666
2023-03-07T03:10:43.888Z,666
2023-03-07T03:11:43.884Z,666
2023-03-07T03:13:44.160Z,666
2023-03-07T03:14:43.890Z,693
2023-03-07T03:15:44.038Z,693
2023-03-07T03:16:43.905Z,693
2023-03-07T03:18:44.165Z,693
2023-03-07T03:19:43.976Z,745
2023-03-07T03:20:43.904Z,745
2023-03-07T03:21:43.918Z,745
2023-03-07T03:23:44.190Z,745
2023-03-07T03:24:43.875Z,808
2023-03-07T03:25:43.981Z,808
2023-03-07T03:26:43.878Z,808
2023-03-07T03:28:44.175Z,808
2023-03-07T03:29:43.900Z,733
2023-03-07T03:30:43.869Z,733
2023-03-07T03:31:43.954Z,733
2023-03-07T03:33:44.169Z,733
2023-03-07T03:34:43.898Z,794
2023-03-07T03:35:43.938Z,794
2023-03-07T03:36:43.904Z,794
2023-03-07T03:38:44.162Z,794
2023-03-07T03:39:43.994Z,794
2023-03-07T03:40:43.896Z,794
2023-03-07T03:41:43.992Z,794
2023-03-07T03:43:44.166Z,794
2023-03-07T03:44:44.001Z,765
2023-03-07T03:45:44.032Z,765
2023-03-07T03:46:44.104Z,765
2023-03-07T03:48:44.201Z,765
2023-03-07T03:49:44.006Z,839
2023-03-07T03:50:44.029Z,839
2023-03-07T03:51:43.998Z,839
2023-03-07T03:53:44.175Z,839
2023-03-07T03:54:43.917Z,855
2023-03-07T03:55:43.890Z,855
2023-03-07T03:56:43.923Z,855
2023-03-07T03:58:44.206Z,855
2023-03-07T03:59:43.899Z,855
2023-03-07T04:00:43.880Z,855
2023-03-07T04:01:44.061Z,855
2023-03-07T04:03:44.169Z,855
2023-03-07T04:04:43.909Z,715
2023-03-07T04:05:43.919Z,715
2023-03-07T04:06:43.900Z,715
2023-03-07T04:08:44.180Z,715
2023-03-07T04:09:43.882Z,765
2023-03-07T04:10:43.894Z,765
2023-03-07T04:11:43.926Z,765
2023-03-07T04:13:44.200Z,765
2023-03-07T04:14:43.974Z,808
2023-03-07T04:15:44.003Z,808
2023-03-07T04:16:44.066Z,808
2023-03-07T04:18:44.183Z,808
2023-03-07T04:19:43.901Z,715
2023-03-07T04:20:43.901Z,715
2023-03-07T04:21:43.905Z,715
2023-03-07T04:23:44.185Z,715
2023-03-07T04:24:43.908Z,733
2023-03-07T04:25:43.921Z,733
2023-03-07T04:26:43.884Z,733
2023-03-07T04:28:44.218Z,733
2023-03-07T04:29:43.995Z,679
2023-03-07T04:30:43.913Z,679
2023-03-07T04:31:44.022Z,679
2023-03-07T04:33:44.190Z,679
2023-03-07T04:34:43.914Z,653
2023-03-07T04:35:44.008Z,653
2023-03-07T04:36:44.004Z,653
2023-03-07T04:38:44.181Z,653
2023-03-07T04:39:43.890Z,679
2023-03-07T04:40:44.014Z,679
2023-03-07T04:41:44.027Z,679
2023-03-07T04:43:44.228Z,679
2023-03-07T04:44:43.915Z,679
2023-03-07T04:45:43.903Z,679
2023-03-07T04:46:43.895Z,679
2023-03-07T04:48:44.214Z,679
2023-03-07T04:49:43.893Z,666
2023-03-07T04:50:44.027Z,666
2023-03-07T04:51:44.236Z,666
2023-03-07T04:53:44.220Z,666
2023-03-07T04:54:43.893Z,611
2023-03-07T04:55:43.916Z,611
2023-03-07T04:56:43.931Z,611
2023-03-07T04:58:44.182Z,611
2023-03-07T04:59:43.923Z,647
2023-03-07T05:00:44.023Z,647
2023-03-07T05:01:43.925Z,647
2023-03-07T05:03:44.191Z,647
2023-03-07T05:04:43.893Z,588
2023-03-07T05:05:44.049Z,588
2023-03-07T05:06:43.902Z,588
2023-03-07T05:08:44.196Z,588
2023-03-07T05:09:44.020Z,588
2023-03-07T05:10:43.927Z,588
2023-03-07T05:11:44.048Z,588
2023-03-07T05:13:44.194Z,588
2023-03-07T05:14:44.026Z,637
2023-03-07T05:15:44.045Z,637
2023-03-07T05:16:44.020Z,637
2023-03-07T05:18:44.215Z,637
2023-03-07T05:19:43.901Z,576
2023-03-07T05:20:43.930Z,576
2023-03-07T05:21:43.925Z,576
2023-03-07T05:23:44.208Z,576
2023-03-07T05:24:43.994Z,624
2023-03-07T05:25:43.919Z,624
2023-03-07T05:26:43.898Z,624
2023-03-07T05:28:44.203Z,624
2023-03-07T05:29:44.029Z,653
2023-03-07T05:30:43.933Z,653
2023-03-07T05:31:43.911Z,653
2023-03-07T05:33:44.214Z,653
2023-03-07T05:34:43.932Z,733
2023-03-07T05:35:43.996Z,733
2023-03-07T05:36:43.903Z,733
2023-03-07T05:38:44.212Z,733
2023-03-07T05:39:43.928Z,624
2023-03-07T05:40:43.923Z,624
2023-03-07T05:41:44.019Z,624
2023-03-07T05:43:44.188Z,624
2023-03-07T05:44:44.002Z,666
2023-03-07T05:45:43.939Z,666
2023-03-07T05:46:44.042Z,666
2023-03-07T05:48:44.233Z,666
2023-03-07T05:49:43.943Z,679
2023-03-07T05:50:43.949Z,679
2023-03-07T05:51:43.922Z,679
2023-03-07T05:53:44.210Z,679
2023-03-07T05:54:43.948Z,637
2023-03-07T05:55:43.948Z,637
2023-03-07T05:56:43.909Z,637
2023-03-07T05:58:44.239Z,637
2023-03-07T05:59:43.912Z,693
2023-03-07T06:00:44.057Z,693
2023-03-07T06:01:43.923Z,693
2023-03-07T06:03:44.251Z,693
2023-03-07T06:04:43.945Z,611
2023-03-07T06:05:43.952Z,611
2023-03-07T06:06:43.914Z,611
2023-03-07T06:08:44.245Z,611
2023-03-07T06:09:44.043Z,679
2023-03-07T06:10:44.050Z,679
2023-03-07T06:11:44.064Z,679
2023-03-07T06:13:44.232Z,679
2023-03-07T06:14:43.960Z,666
2023-03-07T06:15:44.102Z,666
2023-03-07T06:16:44.056Z,666
2023-03-07T06:18:44.221Z,666
2023-03-07T06:19:43.931Z,679
2023-03-07T06:20:44.052Z,679
2023-03-07T06:21:43.942Z,679
2023-03-07T06:23:44.220Z,679
2023-03-07T06:24:43.949Z,679
2023-03-07T06:25:43.961Z,679
2023-03-07T06:26:43.955Z,679
2023-03-07T06:28:44.221Z,679
2023-03-07T06:29:44.089Z,647
2023-03-07T06:30:43.927Z,647
2023-03-07T06:31:44.126Z,647
2023-03-07T06:33:44.214Z,647
2023-03-07T06:34:43.966Z,666
2023-03-07T06:35:43.946Z,666
2023-03-07T06:36:43.974Z,666
2023-03-07T06:38:44.219Z,666
2023-03-07T06:39:43.957Z,611
2023-03-07T06:40:43.965Z,611
2023-03-07T06:41:43.953Z,611
2023-03-07T06:43:44.236Z,611
2023-03-07T06:44:44.105Z,637
2023-03-07T06:45:44.063Z,637
2023-03-07T06:46:43.986Z,637
2023-03-07T06:48:44.256Z,637
2023-03-07T06:49:43.967Z,624
2023-03-07T06:50:43.939Z,624
2023-03-07T06:51:43.941Z,624
2023-03-07T06:53:44.232Z,624
2023-03-07T06:54:43.944Z,588
2023-03-07T06:55:43.965Z,588
2023-03-07T06:56:45.370Z,588
2023-03-07T06:58:44.255Z,588
2023-03-07T06:59:43.950Z,588
2023-03-07T07:00:44.073Z,588
2023-03-07T07:01:44.023Z,588
2023-03-07T07:03:44.237Z,588
2023-03-07T07:04:43.965Z,588
2023-03-07T07:05:43.964Z,588
2023-03-07T07:06:43.943Z,588
2023-03-07T07:08:44.228Z,588
2023-03-07T07:09:43.972Z,576
2023-03-07T07:10:44.086Z,576
2023-03-07T07:11:43.945Z,576
2023-03-07T07:13:44.260Z,576
2023-03-07T07:14:43.964Z,576
2023-03-07T07:15:44.078Z,576
2023-03-07T07:16:44.016Z,576
2023-03-07T07:18:44.227Z,576
2023-03-07T07:19:44.073Z,565
2023-03-07T07:20:43.977Z,565
2023-03-07T07:21:43.986Z,565
2023-03-07T07:23:44.244Z,565
2023-03-07T07:24:43.959Z,535
2023-03-07T07:25:44.059Z,535
2023-03-07T07:26:43.951Z,535
2023-03-07T07:28:44.250Z,535
2023-03-07T07:29:43.981Z,517
2023-03-07T07:30:44.051Z,517
2023-03-07T07:31:44.119Z,517
2023-03-07T07:33:44.241Z,517
2023-03-07T07:34:44.099Z,535
2023-03-07T07:35:44.012Z,535
2023-03-07T07:36:43.975Z,535
2023-03-07T07:38:44.250Z,535
2023-03-07T07:39:44.086Z,535
2023-03-07T07:40:44.108Z,535
2023-03-07T07:41:44.104Z,535
2023-03-07T07:43:44.246Z,535
2023-03-07T07:44:43.986Z,482
2023-03-07T07:45:44.187Z,482
2023-03-07T07:46:44.117Z,482
2023-03-07T07:48:44.295Z,482
2023-03-07T07:49:44.003Z,452
2023-03-07T07:50:43.982Z,452
2023-03-07T07:51:44.017Z,452
2023-03-07T07:53:44.267Z,452
2023-03-07T07:54:44.088Z,472
2023-03-07T07:55:44.091Z,472
2023-03-07T07:56:43.968Z,472
2023-03-07T07:58:44.287Z,472
2023-03-07T07:59:44.096Z,439
2023-03-07T08:00:43.977Z,439
2023-03-07T08:01:43.988Z,439
2023-03-07T08:03:44.312Z,439
2023-03-07T08:04:43.972Z,403
2023-03-07T08:05:44.039Z,403
2023-03-07T08:06:43.992Z,403
2023-03-07T08:08:44.283Z,403
2023-03-07T08:09:43.989Z,419
2023-03-07T08:10:44.138Z,419
2023-03-07T08:11:44.002Z,419
2023-03-07T08:13:44.282Z,419
2023-03-07T08:14:43.971Z,400
2023-03-07T08:15:44.034Z,400
2023-03-07T08:16:44.029Z,400
2023-03-07T08:18:44.337Z,400
2023-03-07T08:19:44.024Z,400
2023-03-07T08:20:44.096Z,400
2023-03-07T08:21:43.986Z,400
2023-03-07T08:23:44.283Z,400
2023-03-07T08:24:43.986Z,477
2023-03-07T08:25:43.996Z,477
2023-03-07T08:26:44.017Z,477
2023-03-07T08:28:44.307Z,477
2023-03-07T08:29:44.000Z,501
2023-03-07T08:30:44.015Z,501
2023-03-07T08:31:43.970Z,501
2023-03-07T08:33:44.229Z,501
2023-03-07T08:34:43.992Z,517
2023-03-07T08:35:44.063Z,517
2023-03-07T08:36:44.085Z,517
2023-03-07T08:38:44.279Z,517
2023-03-07T08:39:43.985Z,435
2023-03-07T08:40:44.124Z,435
2023-03-07T08:41:44.040Z,435
2023-03-07T08:43:44.313Z,435
2023-03-07T08:44:43.990Z,561
2023-03-07T08:45:44.116Z,561
2023-03-07T08:46:44.024Z,561
2023-03-07T08:48:44.288Z,561
2023-03-07T08:49:44.140Z,445
2023-03-07T08:50:43.994Z,445
2023-03-07T08:51:44.006Z,445
2023-03-07T08:53:44.281Z,445
2023-03-07T08:54:43.990Z,477
2023-03-07T08:55:44.037Z,477
2023-03-07T08:56:44.107Z,477
2023-03-07T08:58:44.300Z,477
2023-03-07T08:59:44.024Z,488
2023-03-07T09:00:44.028Z,488
2023-03-07T09:01:44.070Z,488
2023-03-07T09:03:44.321Z,488
2023-03-07T09:04:44.049Z,435
2023-03-07T09:05:44.017Z,435
2023-03-07T09:06:44.126Z,435
2023-03-07T09:08:44.284Z,435
2023-03-07T09:09:44.022Z,400
2023-03-07T09:10:44.064Z,400
2023-03-07T09:11:44.095Z,400
2023-03-07T09:13:51.764Z,400
2023-03-07T09:14:44.019Z,466
2023-03-07T09:15:44.030Z,466
2023-03-07T09:16:44.050Z,466
2023-03-07T09:18:44.292Z,466
2023-03-07T09:19:44.024Z,535
2023-03-07T09:20:44.041Z,535
2023-03-07T09:21:44.050Z,569
2023-03-07T09:23:44.321Z,589
2023-03-07T09:24:44.166Z,428
2023-03-07T09:25:44.123Z,529
2023-03-07T09:26:44.026Z,428
2023-03-07T09:28:44.311Z,428
2023-03-07T09:29:44.030Z,501
2023-03-07T09:30:44.037Z,535
2023-03-07T09:31:44.112Z,490
2023-03-07T09:33:46.261Z,490
2023-03-07T09:34:44.116Z,437
2023-03-07T09:35:44.064Z,551
2023-03-07T09:36:44.146Z,496
2023-03-07T09:38:44.297Z,437
2023-03-07T09:39:44.129Z,553
2023-03-07T09:40:44.038Z,466
2023-03-07T09:41:44.030Z,564
2023-03-07T09:43:44.300Z,506
2023-03-07T09:44:44.044Z,537
2023-03-07T09:45:44.038Z,490
2023-03-07T09:46:44.003Z,490
2023-03-07T09:48:44.326Z,490
2023-03-07T09:49:44.018Z,575
2023-03-07T09:50:44.001Z,575
2023-03-07T09:51:44.011Z,575
2023-03-07T09:53:44.310Z,575
2023-03-07T09:54:44.015Z,589
2023-03-07T09:55:44.137Z,589
2023-03-07T09:56:44.145Z,589
2023-03-07T09:58:44.308Z,589
2023-03-07T09:59:44.036Z,621
2023-03-07T10:00:44.017Z,621
2023-03-07T10:01:44.018Z,621
2023-03-07T10:03:44.341Z,621
2023-03-07T10:04:44.107Z,490
2023-03-07T10:05:44.037Z,490
2023-03-07T10:06:44.052Z,575
2023-03-07T10:08:44.314Z,490
2023-03-07T10:09:44.041Z,481
2023-03-07T10:10:44.040Z,400
2023-03-07T10:11:44.118Z,425
2023-03-07T10:13:44.324Z,400
2023-03-07T10:14:44.039Z,490
2023-03-07T10:15:44.105Z,534
2023-03-07T10:16:44.098Z,490
2023-03-07T10:18:44.322Z,496
2023-03-07T10:19:44.048Z,473
2023-03-07T10:20:44.129Z,439
2023-03-07T10:21:44.183Z,439
2023-03-07T10:23:44.361Z,493
2023-03-07T10:24:44.155Z,519
2023-03-07T10:25:44.046Z,465
2023-03-07T10:26:44.061Z,451
2023-03-07T10:28:44.349Z,537
2023-03-07T10:29:44.185Z,472
2023-03-07T10:30:44.148Z,473
2023-03-07T10:31:44.047Z,540
2023-03-07T10:33:44.342Z,472
2023-03-07T10:34:44.122Z,599
2023-03-07T10:35:44.212Z,640
2023-03-07T10:36:44.063Z,568
2023-03-07T10:38:44.371Z,603
2023-03-07T10:39:44.163Z,614
2023-03-07T10:40:44.080Z,580
2023-03-07T10:41:44.157Z,613
2023-03-07T10:43:44.350Z,642
2023-03-07T10:44:44.027Z,592
2023-03-07T10:45:44.123Z,620
2023-03-07T10:46:55.148Z,551
2023-03-07T10:48:44.344Z,617
2023-03-07T10:49:44.032Z,483
2023-03-07T10:50:44.085Z,810
2023-03-07T10:51:44.066Z,715
2023-03-07T10:53:44.343Z,517
2023-03-07T10:54:44.157Z,439
2023-03-07T10:55:44.068Z,493
2023-03-07T10:56:44.082Z,529
2023-03-07T10:58:44.332Z,439
2023-03-07T10:59:44.065Z,521
2023-03-07T11:00:44.071Z,482
2023-03-07T11:01:44.092Z,420
2023-03-07T11:03:52.409Z,531
2023-03-07T11:04:44.104Z,400
2023-03-07T11:05:44.070Z,419
2023-03-07T11:06:44.102Z,604
2023-03-07T11:08:44.324Z,404
2023-03-07T11:09:44.060Z,400
2023-03-07T11:10:44.186Z,502
2023-03-07T11:11:44.045Z,416
2023-03-07T11:13:44.341Z,650
2023-03-07T11:14:44.145Z,651
2023-03-07T11:15:44.200Z,707
2023-03-07T11:16:44.213Z,817
2023-03-07T11:18:44.326Z,568
2023-03-07T11:19:44.169Z,842
2023-03-07T11:20:44.173Z,540
2023-03-07T11:21:44.182Z,741
2023-03-07T11:23:44.378Z,895
2023-03-07T11:24:44.054Z,855
2023-03-07T11:25:44.056Z,826
2023-03-07T11:26:44.222Z,899
2023-03-07T11:28:44.346Z,1016
2023-03-07T11:29:44.046Z,679
2023-03-07T11:30:44.223Z,594
2023-03-07T11:31:44.168Z,585
2023-03-07T11:33:56.582Z,935
2023-03-07T11:34:44.050Z,1161
2023-03-07T11:35:44.166Z,1212
2023-03-07T11:36:44.101Z,925
2023-03-07T11:38:44.335Z,971
2023-03-07T11:39:44.067Z,691
2023-03-07T11:40:44.181Z,642
2023-03-07T11:41:44.089Z,835
2023-03-07T11:43:44.365Z,1229
2023-03-07T11:44:44.087Z,646
2023-03-07T11:45:44.049Z,614
2023-03-07T11:46:44.145Z,591
2023-03-07T11:48:44.383Z,653
2023-03-07T11:49:44.094Z,704
2023-03-07T11:50:44.051Z,759
2023-03-07T11:51:44.105Z,835
2023-03-07T11:53:44.400Z,1154
2023-03-07T11:54:44.087Z,1049
2023-03-07T11:55:44.086Z,1221
2023-03-07T11:56:44.079Z,966
2023-03-07T11:58:44.363Z,1082
2023-03-07T11:59:44.100Z,977
2023-03-07T12:00:44.100Z,1268
2023-03-07T12:01:44.097Z,614
2023-03-07T12:03:44.396Z,990
2023-03-07T12:04:44.087Z,799
2023-03-07T12:05:44.084Z,1082
2023-03-07T12:06:44.081Z,1179
2023-03-07T12:08:44.363Z,1258
2023-03-07T12:09:44.087Z,862
2023-03-07T12:10:44.083Z,966
2023-03-07T12:11:44.202Z,1157
2023-03-07T12:13:44.383Z,925
2023-03-07T12:14:44.088Z,1002
2023-03-07T12:15:44.099Z,1514
2023-03-07T12:16:44.215Z,1439
2023-03-07T12:18:44.399Z,1731
2023-03-07T12:19:44.090Z,1758
2023-03-07T12:20:44.181Z,1658
2023-03-07T12:21:44.264Z,1176
2023-03-07T12:23:44.391Z,962
2023-03-07T12:24:44.081Z,680
2023-03-07T12:25:44.093Z,603
2023-03-07T12:26:44.091Z,698
2023-03-07T12:28:44.375Z,1336
2023-03-07T12:29:44.120Z,808
2023-03-07T12:30:44.119Z,1380
2023-03-07T12:31:44.200Z,1487
2023-03-07T12:33:44.405Z,1078
2023-03-07T12:34:44.142Z,1128
2023-03-07T12:35:44.174Z,1034
2023-03-07T12:36:44.084Z,971
2023-03-07T12:38:44.380Z,1557
2023-03-07T12:39:44.090Z,1596
2023-03-07T12:40:44.104Z,916
2023-03-07T12:41:44.124Z,906
2023-03-07T12:43:44.424Z,1474
2023-03-07T12:44:44.216Z,1295
2023-03-07T12:45:44.177Z,1935
2023-03-07T12:46:44.137Z,1299
2023-03-07T12:48:44.400Z,1478
2023-03-07T12:49:49.569Z,1858
2023-03-07T12:50:44.189Z,2209
2023-03-07T12:51:44.094Z,1186
2023-03-07T12:53:44.395Z,1078
2023-03-07T12:54:44.135Z,1882
2023-03-07T12:55:44.114Z,1869
2023-03-07T12:56:44.210Z,1183
2023-03-07T12:58:44.442Z,817
2023-03-07T12:59:44.099Z,1179
2023-03-07T13:00:44.260Z,1246
2023-03-07T13:01:44.231Z,842
2023-03-07T13:03:44.395Z,730
2023-03-07T13:04:44.218Z,1096
2023-03-07T13:05:44.231Z,707
2023-03-07T13:06:44.245Z,1150
2023-03-07T13:08:44.393Z,1212
2023-03-07T13:09:44.230Z,1371
2023-03-07T13:10:44.145Z,1007
2023-03-07T13:11:44.133Z,1430
2023-03-07T13:13:44.395Z,1322
2023-03-07T13:14:44.136Z,1284
2023-03-07T13:15:44.297Z,1109
2023-03-07T13:16:44.162Z,1232
2023-03-07T13:18:44.394Z,1291
2023-03-07T13:19:44.149Z,1084
2023-03-07T13:20:44.140Z,819
2023-03-07T13:21:44.114Z,1088
2023-03-07T13:23:44.434Z,864
2023-03-07T13:24:44.130Z,1004
2023-03-07T13:25:44.122Z,706
2023-03-07T13:26:44.179Z,671
2023-03-07T13:28:44.373Z,618
2023-03-07T13:29:44.234Z,788
2023-03-07T13:30:44.151Z,704
2023-03-07T13:31:44.115Z,561
2023-03-07T13:33:44.425Z,561
2023-03-07T13:34:44.248Z,620
2023-03-07T13:35:44.147Z,620
2023-03-07T13:36:44.110Z,620
2023-03-07T13:38:44.415Z,620
2023-03-07T13:39:44.143Z,751
2023-03-07T13:40:44.138Z,736
2023-03-07T13:41:44.283Z,736
2023-03-07T13:43:44.408Z,736
2023-03-07T13:44:44.295Z,770
2023-03-07T13:45:44.292Z,770
2023-03-07T13:46:44.249Z,770
2023-03-07T13:48:44.403Z,770
2023-03-07T13:49:44.113Z,698
2023-03-07T13:50:44.135Z,698
2023-03-07T13:51:44.151Z,698
2023-03-07T13:53:44.474Z,698
2023-03-07T13:54:44.143Z,599
2023-03-07T13:55:44.154Z,599
2023-03-07T13:56:44.182Z,599
2023-03-07T13:58:44.406Z,599
2023-03-07T13:59:44.231Z,561
2023-03-07T14:00:44.273Z,561
2023-03-07T14:01:44.268Z,568
2023-03-07T14:03:44.468Z,561
2023-03-07T14:04:44.135Z,454
2023-03-07T14:05:44.237Z,454
2023-03-07T14:06:44.117Z,454
2023-03-07T14:08:44.471Z,454
2023-03-07T14:09:44.138Z,552
2023-03-07T14:10:44.136Z,523
2023-03-07T14:11:44.134Z,523
2023-03-07T14:13:44.382Z,523
2023-03-07T14:14:44.131Z,589
2023-03-07T14:15:44.289Z,589
2023-03-07T14:16:44.162Z,589
2023-03-07T14:18:44.436Z,589
2023-03-07T14:19:44.177Z,561
2023-03-07T14:20:44.137Z,561
2023-03-07T14:21:44.242Z,561
2023-03-07T14:23:44.442Z,561
2023-03-07T14:24:44.150Z,617
2023-03-07T14:25:44.277Z,617
2023-03-07T14:26:44.418Z,617
2023-03-07T14:28:44.440Z,617
2023-03-07T14:29:44.196Z,506
2023-03-07T14:30:44.262Z,506
2023-03-07T14:31:44.267Z,506
2023-03-07T14:33:44.428Z,506
2023-03-07T14:34:44.175Z,473
2023-03-07T14:35:44.176Z,473
2023-03-07T14:36:46.087Z,473
2023-03-07T14:38:44.482Z,473
2023-03-07T14:39:44.181Z,473
2023-03-07T14:40:44.177Z,473
2023-03-07T14:41:44.163Z,473
2023-03-07T14:43:44.474Z,473
2023-03-07T14:44:44.204Z,506
2023-03-07T14:45:44.274Z,506
2023-03-07T14:46:44.235Z,506
2023-03-07T14:48:44.460Z,506
2023-03-07T14:49:44.277Z,561
2023-03-07T14:50:44.294Z,561
2023-03-07T14:51:44.214Z,561
2023-03-07T14:53:44.469Z,561
2023-03-07T14:54:44.160Z,531
2023-03-07T14:55:44.164Z,531
2023-03-07T14:56:44.175Z,531
2023-03-07T14:58:44.471Z,531
2023-03-07T14:59:44.295Z,571
2023-03-07T15:00:44.174Z,571
2023-03-07T15:01:44.877Z,571
2023-03-07T15:03:44.446Z,571
2023-03-07T15:04:44.314Z,571
2023-03-07T15:05:44.225Z,571
2023-03-07T15:06:44.272Z,571
2023-03-07T15:08:44.561Z,571
2023-03-07T15:09:44.297Z,666
2023-03-07T15:10:44.176Z,666
2023-03-07T15:11:44.179Z,666
2023-03-07T15:13:44.483Z,666
2023-03-07T15:14:44.145Z,745
2023-03-07T15:15:44.184Z,745
2023-03-07T15:16:44.258Z,745
2023-03-07T15:18:44.479Z,745
2023-03-07T15:19:44.863Z,806
2023-03-07T15:20:44.263Z,806
2023-03-07T15:21:44.185Z,806
2023-03-07T15:23:44.473Z,806
2023-03-07T15:24:44.191Z,864
2023-03-07T15:25:44.295Z,864
2023-03-07T15:26:44.179Z,864
2023-03-07T15:28:44.555Z,864
2023-03-07T15:29:44.185Z,830
2023-03-07T15:30:44.195Z,830
2023-03-07T15:31:44.235Z,830
2023-03-07T15:33:44.499Z,830
2023-03-07T15:34:44.209Z,755
2023-03-07T15:35:44.269Z,755
2023-03-07T15:36:44.237Z,755
2023-03-07T15:38:44.477Z,755
2023-03-07T15:39:44.196Z,698
2023-03-07T15:40:44.225Z,698
2023-03-07T15:41:44.226Z,698
2023-03-07T15:43:44.496Z,698
2023-03-07T15:44:44.173Z,772
2023-03-07T15:45:44.247Z,772
2023-03-07T15:46:44.302Z,772
2023-03-07T15:48:44.493Z,772
2023-03-07T15:49:44.211Z,743
2023-03-07T15:50:44.190Z,743
2023-03-07T15:51:44.181Z,743
2023-03-07T15:53:44.504Z,743
2023-03-07T15:54:44.218Z,743
2023-03-07T15:55:44.193Z,743
2023-03-07T15:56:44.212Z,743
2023-03-07T15:58:44.473Z,743
2023-03-07T15:59:44.195Z,730
2023-03-07T16:00:44.201Z,730
2023-03-07T16:01:44.236Z,730
2023-03-07T16:03:44.624Z,730
2023-03-07T16:04:44.322Z,730
2023-03-07T16:05:44.171Z,730
2023-03-07T16:06:44.221Z,730
2023-03-07T16:08:44.474Z,730
2023-03-07T16:09:44.201Z,882
2023-03-07T16:10:44.215Z,882
2023-03-07T16:11:44.210Z,882
2023-03-07T16:13:44.483Z,882
2023-03-07T16:14:44.222Z,799
2023-03-07T16:15:44.204Z,799
2023-03-07T16:16:44.503Z,799
2023-03-07T16:18:44.559Z,799
2023-03-07T16:19:44.301Z,768
2023-03-07T16:20:44.181Z,768
2023-03-07T16:21:44.212Z,768
2023-03-07T16:23:44.483Z,768
2023-03-07T16:24:44.316Z,799
2023-03-07T16:25:44.213Z,799
2023-03-07T16:26:44.204Z,799
2023-03-07T16:28:44.496Z,799
2023-03-07T16:29:44.205Z,832
2023-03-07T16:30:44.197Z,832
2023-03-07T16:31:44.263Z,832
2023-03-07T16:33:44.489Z,832
2023-03-07T16:34:44.532Z,864
2023-03-07T16:35:44.226Z,864
2023-03-07T16:36:44.182Z,864
2023-03-07T16:38:44.524Z,864
2023-03-07T16:39:44.200Z,768
2023-03-07T16:40:44.322Z,768
2023-03-07T16:41:44.217Z,768
2023-03-07T16:43:44.500Z,768
2023-03-07T16:44:44.317Z,847
2023-03-07T16:45:44.348Z,847
2023-03-07T16:46:44.879Z,847
2023-03-07T16:48:44.515Z,847
2023-03-07T16:49:44.297Z,817
2023-03-07T16:50:44.193Z,817
2023-03-07T16:51:45.906Z,817
2023-03-07T16:53:44.506Z,817
2023-03-07T16:54:44.321Z,892
2023-03-07T16:55:44.261Z,892
2023-03-07T16:56:44.314Z,892
2023-03-07T16:58:44.541Z,892
2023-03-07T16:59:44.328Z,892
2023-03-07T17:00:44.278Z,892
2023-03-07T17:01:44.360Z,892
2023-03-07T17:03:44.521Z,892
2023-03-07T17:04:44.479Z,892
2023-03-07T17:05:44.194Z,892
2023-03-07T17:06:44.305Z,892
2023-03-07T17:08:44.485Z,892
2023-03-07T17:09:44.219Z,909
2023-03-07T17:10:44.880Z,909